Time;durP1;ratioP1;P1;durP2;ratioP2;P2;SDS_P1;SDS_P2;PMS_P1;PMS_P2;Temp;Humidity;BMP_temperature;BMP_pressure;BME280_temperature;BME280_humidity;BME280_pressure;Samples;Min_cycle;Max_cycle;Signal;HPM_P1;HPM_P2
2021/10/19 00:01:55;;;;;;;10.68;7.20;;;;;;;21.26;48.09;101841.41;5056432;28;20044;-70
2021/10/19 00:04:20;;;;;;;11.40;7.50;;;;;;;21.23;48.16;101844.38;5057535;28;20028;-70
2021/10/19 00:06:46;;;;;;;11.25;6.53;;;;;;;21.29;47.72;101841.09;5059800;28;20048;-70
2021/10/19 00:09:11;;;;;;;9.88;6.63;;;;;;;21.26;48.12;101840.59;5060221;28;20102;-70
2021/10/19 00:11:37;;;;;;;9.45;6.43;;;;;;;21.26;47.82;101845.91;5062186;28;20105;-70
2021/10/19 00:14:02;;;;;;;9.27;7.00;;;;;;;21.19;48.01;101847.53;5053794;28;20383;-70
2021/10/19 00:16:28;;;;;;;11.68;6.38;;;;;;;21.16;48.19;101853.94;5058902;28;20060;-70
2021/10/19 00:18:53;;;;;;;9.73;6.72;;;;;;;21.22;48.03;101850.66;5058152;28;20064;-70
2021/10/19 00:21:19;;;;;;;9.80;6.65;;;;;;;21.23;47.86;101852.31;5056703;28;20099;-70
2021/10/19 00:23:44;;;;;;;10.27;7.00;;;;;;;21.13;48.05;101844.50;5045386;28;20045;-70
2021/10/19 00:26:10;;;;;;;11.60;7.22;;;;;;;21.19;48.25;101837.75;5046343;28;20079;-70
2021/10/19 00:28:36;;;;;;;9.43;6.55;;;;;;;21.13;48.44;101822.50;5059916;28;20053;-70
2021/10/19 00:31:02;;;;;;;13.13;7.72;;;;;;;21.14;48.04;101829.44;5061229;28;20039;-70
2021/10/19 00:33:27;;;;;;;11.15;7.03;;;;;;;21.20;48.05;101825.34;5061987;28;20044;-70
2021/10/19 00:35:53;;;;;;;11.20;6.78;;;;;;;21.15;48.09;101820.50;5065396;28;20404;-70
2021/10/19 00:38:18;;;;;;;10.57;7.28;;;;;;;21.16;48.30;101818.69;5067020;28;20049;-70
2021/10/19 00:40:44;;;;;;;9.60;6.88;;;;;;;21.15;48.20;101822.34;5061579;28;20573;-70
2021/10/19 00:43:09;;;;;;;9.65;6.63;;;;;;;21.19;48.21;101821.03;5067833;28;20118;-70
2021/10/19 00:45:35;;;;;;;10.60;6.85;;;;;;;21.12;48.13;101821.66;5058847;28;20052;-71
2021/10/19 00:48:01;;;;;;;13.00;7.30;;;;;;;20.80;48.37;101777.44;5051856;28;20041;-70
2021/10/19 00:50:27;;;;;;;10.15;7.07;;;;;;;21.13;47.93;101823.31;5048103;28;20041;-70
2021/10/19 00:52:55;;;;;;;10.13;6.70;;;;;;;21.10;48.12;101818.38;5062811;28;20201;-70
2021/10/19 00:55:21;;;;;;;11.35;7.30;;;;;;;21.14;48.08;101824.16;5067027;28;20044;-70
2021/10/19 00:57:47;;;;;;;10.88;7.10;;;;;;;21.10;48.01;101812.25;5060714;28;20053;-70
2021/10/19 01:00:13;;;;;;;11.27;7.45;;;;;;;20.95;48.30;101801.47;5049412;28;20680;-70
2021/10/19 01:02:43;;;;;;;10.10;6.35;;;;;;;21.09;48.09;101815.88;5059236;28;20048;-70
2021/10/19 01:05:08;;;;;;;10.35;7.20;;;;;;;20.99;48.10;101805.44;5063762;28;20394;-70
2021/10/19 01:07:34;;;;;;;10.65;7.22;;;;;;;21.08;48.13;101815.06;5065193;28;20036;-70
2021/10/19 01:10:03;;;;;;;10.75;6.78;;;;;;;21.10;48.23;101818.38;5061632;28;20032;-70
2021/10/19 01:12:28;;;;;;;10.25;6.45;;;;;;;21.08;48.28;101819.53;5058426;28;20130;-69
2021/10/19 01:14:54;;;;;;;10.45;6.90;;;;;;;21.08;48.05;101815.06;5050547;28;20566;-69
2021/10/19 01:17:19;;;;;;;10.38;7.22;;;;;;;21.01;48.46;101819.38;5066845;28;20040;-70
2021/10/19 01:19:49;;;;;;;11.77;7.10;;;;;;;21.02;48.30;101807.78;5067877;28;20330;-70
2021/10/19 01:22:15;;;;;;;10.00;6.82;;;;;;;21.00;48.31;101809.72;5041709;28;20048;-70
2021/10/19 01:24:40;;;;;;;12.05;7.07;;;;;;;21.09;48.49;101813.22;5067602;28;20035;-70
2021/10/19 01:27:06;;;;;;;12.00;7.18;;;;;;;21.03;48.21;101803.31;5057297;28;20056;-70
2021/10/19 01:29:31;;;;;;;10.20;6.93;;;;;;;20.97;48.26;101794.19;5060481;28;20032;-70
2021/10/19 01:31:57;;;;;;;10.90;6.63;;;;;;;21.02;48.31;101797.19;5050016;28;20068;-72
2021/10/19 01:34:23;;;;;;;10.48;7.07;;;;;;;21.04;48.30;101803.13;5047438;28;20041;-70
2021/10/19 01:36:48;;;;;;;10.30;6.65;;;;;;;20.99;48.31;101796.66;5061890;28;20048;-70
2021/10/19 01:39:14;;;;;;;11.63;6.80;;;;;;;20.89;48.39;101780.94;5064991;28;20111;-70
2021/10/19 01:41:46;;;;;;;9.90;6.95;;;;;;;20.98;48.17;101787.06;5061690;28;20044;-70
2021/10/19 01:44:11;;;;;;;9.85;7.10;;;;;;;20.98;48.42;101795.81;5059350;28;20114;-72
2021/10/19 01:46:37;;;;;;;10.85;7.25;;;;;;;21.01;48.24;101790.22;5065473;28;20032;-70
2021/10/19 01:49:02;;;;;;;8.82;6.75;;;;;;;21.04;48.36;101789.06;5049952;28;20543;-71
2021/10/19 01:51:28;;;;;;;11.75;6.68;;;;;;;21.01;48.29;101781.47;5062199;28;20500;-70
2021/10/19 01:53:54;;;;;;;9.85;7.22;;;;;;;20.95;48.13;101774.97;5077447;28;20032;-69
2021/10/19 01:56:19;;;;;;;10.18;6.68;;;;;;;20.97;48.43;101786.22;5082367;28;20820;-71
2021/10/19 01:58:45;;;;;;;11.30;6.50;;;;;;;20.85;48.45;101768.19;5060484;28;20141;-70
2021/10/19 02:01:11;;;;;;;11.48;7.30;;;;;;;20.94;48.33;101783.09;5063717;28;20384;-69
2021/10/19 02:03:37;;;;;;;9.23;6.55;;;;;;;20.96;48.45;101778.47;5083110;28;20177;-69
2021/10/19 02:06:02;;;;;;;10.57;7.00;;;;;;;20.89;48.62;101770.34;5034996;28;20181;-69
2021/10/19 02:08:28;;;;;;;10.95;6.97;;;;;;;20.98;48.08;101764.06;5087249;28;20040;-69
2021/10/19 02:10:53;;;;;;;10.80;6.70;;;;;;;20.91;48.37;101762.25;5066013;28;20043;-69
2021/10/19 02:13:19;;;;;;;11.23;6.72;;;;;;;20.83;48.42;101749.84;5081095;28;20117;-70
2021/10/19 02:15:45;;;;;;;10.10;7.03;;;;;;;20.87;48.46;101750.34;5065255;28;20048;-69
2021/10/19 02:18:11;;;;;;;9.68;6.88;;;;;;;20.89;48.46;101748.34;5051587;28;20037;-69
2021/10/19 02:20:38;;;;;;;10.73;7.13;;;;;;;20.93;48.52;101742.56;5059506;28;20024;-69
2021/10/19 02:23:04;;;;;;;9.35;6.70;;;;;;;20.84;48.44;101742.72;5057044;28;20505;-69
2021/10/19 02:25:30;;;;;;;10.68;6.95;;;;;;;20.91;48.38;101744.53;5067632;28;20040;-70
2021/10/19 02:27:57;;;;;;;10.93;7.55;;;;;;;20.89;48.64;101743.88;5067326;28;20054;-70
2021/10/19 02:30:23;;;;;;;10.35;7.28;;;;;;;20.91;48.52;101739.25;5076717;28;20389;-70
2021/10/19 02:32:48;;;;;;;11.63;7.50;;;;;;;20.86;48.48;101724.84;5080522;28;20049;-70
2021/10/19 02:35:17;;;;;;;10.48;7.35;;;;;;;20.92;48.55;101726.84;5070878;28;20542;-69
2021/10/19 02:37:43;;;;;;;11.95;6.95;;;;;;;20.86;48.44;101724.84;5064833;28;20071;-70
2021/10/19 02:40:10;;;;;;;10.60;7.03;;;;;;;20.85;48.48;101724.03;5062236;28;20037;-69
2021/10/19 02:42:36;;;;;;;10.93;7.25;;;;;;;20.83;48.29;101719.91;5071180;28;20044;-70
2021/10/19 02:45:04;;;;;;;9.70;6.93;;;;;;;20.90;48.47;101732.28;5072255;28;20070;-70
2021/10/19 02:47:29;;;;;;;10.20;7.25;;;;;;;20.81;48.79;101733.25;5059747;28;20382;-70
2021/10/19 02:49:55;;;;;;;10.90;7.10;;;;;;;20.83;48.55;101733.13;5064626;28;20028;-70
2021/10/19 02:52:20;;;;;;;10.10;6.80;;;;;;;20.88;48.42;101730.81;5047142;28;20033;-70
2021/10/19 02:54:46;;;;;;;9.35;6.32;;;;;;;20.88;48.51;101734.28;5052510;28;20040;-70
2021/10/19 02:57:12;;;;;;;10.63;6.85;;;;;;;20.88;48.44;101736.94;5069530;28;20040;-70
2021/10/19 02:59:37;;;;;;;13.63;7.25;;;;;;;20.82;48.66;101734.91;5072333;28;20036;-72
2021/10/19 03:02:03;;;;;;;10.90;7.05;;;;;;;20.79;48.55;101727.31;5068748;28;20037;-72
2021/10/19 03:04:28;;;;;;;10.25;7.28;;;;;;;20.83;48.68;101727.84;5080090;28;20059;-70
2021/10/19 03:06:54;;;;;;;10.10;7.05;;;;;;;20.77;48.79;101729.28;5076822;28;20051;-70
2021/10/19 03:09:19;;;;;;;10.00;6.68;;;;;;;20.77;48.67;101724.84;5075245;28;20041;-69
2021/10/19 03:11:45;;;;;;;9.85;6.78;;;;;;;20.79;48.58;101727.31;5069313;28;20106;-69
2021/10/19 03:14:11;;;;;;;10.95;6.82;;;;;;;20.86;48.56;101730.16;5077357;28;20048;-69
2021/10/19 03:16:37;;;;;;;11.52;7.05;;;;;;;20.82;48.54;101711.09;5063919;28;20056;-70
2021/10/19 03:19:03;;;;;;;9.13;6.30;;;;;;;20.83;48.51;101720.72;5078048;28;20050;-70
2021/10/19 03:21:29;;;;;;;12.65;7.55;;;;;;;20.87;48.55;101723.84;5073900;28;20146;-70
2021/10/19 03:23:54;;;;;;;10.07;6.82;;;;;;;20.79;48.51;101711.44;5067745;28;20783;-69
2021/10/19 03:26:20;;;;;;;11.65;7.32;;;;;;;20.81;48.58;101715.56;5056685;28;20418;-70
2021/10/19 03:28:45;;;;;;;11.48;7.10;;;;;;;20.83;48.53;101722.53;5068000;28;20052;-70
2021/10/19 03:31:11;;;;;;;9.38;6.35;;;;;;;20.73;48.65;101710.28;5072668;28;20078;-69
2021/10/19 03:33:37;;;;;;;10.15;6.97;;;;;;;20.71;48.86;101719.38;5064165;28;20115;-69
2021/10/19 03:36:04;;;;;;;10.40;7.05;;;;;;;20.79;48.65;101722.00;5059246;28;20052;-69
2021/10/19 03:38:30;;;;;;;10.43;7.10;;;;;;;20.76;48.64;101719.69;5066626;28;20055;-70
2021/10/19 03:40:55;;;;;;;13.55;7.40;;;;;;;20.75;48.61;101710.94;5073669;28;20028;-69
2021/10/19 03:43:21;;;;;;;9.90;6.78;;;;;;;20.74;48.84;101704.00;5067452;28;20090;-70
2021/10/19 03:45:46;;;;;;;9.20;6.53;;;;;;;20.76;48.58;101707.28;5077163;28;20033;-70
2021/10/19 03:48:12;;;;;;;11.93;7.07;;;;;;;20.78;48.62;101700.00;5062143;28;20048;-70
2021/10/19 03:50:38;;;;;;;11.05;6.68;;;;;;;20.83;48.56;101693.41;5056333;28;20101;-70
2021/10/19 03:53:03;;;;;;;10.15;6.80;;;;;;;20.74;48.55;101687.28;5066299;28;20387;-70
2021/10/19 03:55:29;;;;;;;10.90;7.32;;;;;;;20.78;48.72;101680.66;5058039;28;20547;-70
2021/10/19 03:57:54;;;;;;;12.23;7.28;;;;;;;20.62;49.00;101680.66;5070385;28;20413;-70
2021/10/19 04:00:20;;;;;;;10.13;6.90;;;;;;;20.66;48.70;101679.34;5058997;28;20090;-69
2021/10/19 04:02:45;;;;;;;12.07;7.32;;;;;;;20.75;48.75;101683.63;5072225;28;20040;-69
2021/10/19 04:05:11;;;;;;;10.15;7.03;;;;;;;20.76;48.94;101694.06;5081226;28;20032;-70
2021/10/19 04:07:36;;;;;;;9.32;6.75;;;;;;;20.84;48.59;101682.66;5043770;28;20046;-70
2021/10/19 04:10:06;;;;;;;11.68;6.85;;;;;;;20.87;48.40;101687.63;5082943;28;20036;-71
2021/10/19 04:12:31;;;;;;;10.35;6.88;;;;;;;20.89;48.50;101677.69;5062751;28;20061;-70
2021/10/19 04:14:57;;;;;;;10.35;7.15;;;;;;;20.89;48.63;101668.91;5078050;28;20024;-70
2021/10/19 04:17:23;;;;;;;9.38;6.70;;;;;;;20.99;48.35;101664.25;5061100;28;20479;-70
2021/10/19 04:19:48;;;;;;;11.75;7.40;;;;;;;21.06;48.27;101666.09;5065950;28;20036;-70
2021/10/19 04:22:14;;;;;;;11.15;7.15;;;;;;;21.03;48.00;101621.41;5078099;28;20043;-70
2021/10/19 04:24:39;;;;;;;9.02;6.57;;;;;;;21.42;47.43;101649.81;5077239;28;20041;-70
2021/10/19 04:27:05;;;;;;;11.68;7.20;;;;;;;21.92;46.47;101652.13;5062232;28;20076;-70
2021/10/19 04:29:31;;;;;;;8.68;6.53;;;;;;;22.02;46.05;101652.69;5073500;28;20037;-69
2021/10/19 04:31:57;;;;;;;8.52;6.20;;;;;;;22.21;45.66;101653.28;5068072;28;20037;-69
2021/10/19 04:34:22;;;;;;;10.10;6.53;;;;;;;22.38;45.59;101652.19;5063928;28;20420;-70
2021/10/19 04:36:48;;;;;;;11.48;6.97;;;;;;;22.39;45.54;101653.00;5071646;28;20044;-69
2021/10/19 04:39:13;;;;;;;10.50;7.15;;;;;;;22.36;45.33;101663.97;5068485;28;20086;-70
2021/10/19 04:41:44;;;;;;;9.95;6.20;;;;;;;22.43;45.31;101668.41;5069097;28;20036;-70
2021/10/19 04:44:11;;;;;;;9.95;6.70;;;;;;;22.20;46.14;101659.59;5089989;28;20043;-70
2021/10/19 04:46:38;;;;;;;10.27;6.65;;;;;;;22.01;46.72;101671.44;5063784;28;20061;-70
2021/10/19 04:49:04;;;;;;;9.45;6.65;;;;;;;21.92;47.02;101675.16;5074798;28;20035;-70
2021/10/19 04:51:30;;;;;;;8.70;6.72;;;;;;;21.80;47.22;101668.56;5062686;28;20491;-70
2021/10/19 04:53:56;;;;;;;11.15;6.35;;;;;;;21.60;47.67;101665.50;5069936;28;20473;-70
2021/10/19 04:56:22;;;;;;;8.25;6.57;;;;;;;21.59;47.65;101661.19;5070868;28;20157;-70
2021/10/19 04:58:47;;;;;;;9.65;6.80;;;;;;;21.60;47.91;101652.25;5083873;28;20551;-70
2021/10/19 05:01:13;;;;;;;10.93;6.63;;;;;;;21.60;47.66;101652.25;5068698;28;20036;-70
2021/10/19 05:03:46;;;;;;;9.32;6.80;;;;;;;21.48;48.04;101657.09;5075393;28;20569;-70
2021/10/19 05:06:12;;;;;;;10.68;6.70;;;;;;;21.40;48.35;101655.28;5083365;28;20118;-70
2021/10/19 05:08:38;;;;;;;9.43;6.43;;;;;;;21.43;48.21;101670.03;5076216;28;20493;-70
2021/10/19 05:11:03;;;;;;;7.78;5.63;;;;;;;21.41;48.39;101680.78;5056657;28;20044;-70
2021/10/19 05:13:29;;;;;;;9.13;6.40;;;;;;;21.35;48.31;101675.31;5060981;28;20040;-70
2021/10/19 05:15:55;;;;;;;8.85;6.10;;;;;;;21.33;48.26;101672.03;5078290;28;20053;-70
2021/10/19 05:18:20;;;;;;;10.00;6.50;;;;;;;21.25;48.54;101664.94;5067191;28;20525;-70
2021/10/19 05:20:46;;;;;;;8.90;6.70;;;;;;;21.23;48.85;101655.47;5067802;28;20501;-70
2021/10/19 05:23:12;;;;;;;10.35;7.32;;;;;;;21.22;48.96;101654.66;5061153;28;20085;-72
2021/10/19 05:25:38;;;;;;;8.85;6.00;;;;;;;21.23;48.60;101651.00;5065110;28;20044;-72
2021/10/19 05:28:04;;;;;;;11.20;7.30;;;;;;;21.27;48.80;101640.91;5064483;28;20635;-70
2021/10/19 05:30:29;;;;;;;9.30;6.50;;;;;;;21.19;48.87;101635.63;5077912;28;20101;-70
2021/10/19 05:32:55;;;;;;;9.48;6.22;;;;;;;21.31;48.53;101644.88;5067164;28;20043;-70
2021/10/19 05:35:20;;;;;;;10.48;6.93;;;;;;;21.34;48.34;101636.59;5083412;28;20040;-70
2021/10/19 05:37:46;;;;;;;8.55;6.35;;;;;;;21.43;48.34;101638.22;5080590;28;20402;-69
2021/10/19 05:40:11;;;;;;;10.13;6.70;;;;;;;21.40;48.32;101630.63;5079953;28;20496;-70
2021/10/19 05:42:37;;;;;;;10.45;6.93;;;;;;;21.46;48.06;101642.34;5074890;28;20032;-70
2021/10/19 05:45:05;;;;;;;10.52;6.15;;;;;;;21.40;48.40;101627.97;5064529;28;20132;-69
2021/10/19 05:47:30;;;;;;;9.30;6.13;;;;;;;21.39;48.34;101631.63;5079223;28;20559;-69
2021/10/19 05:49:56;;;;;;;9.57;6.68;;;;;;;21.32;48.34;101623.50;5077154;28;20120;-70
2021/10/19 05:52:22;;;;;;;10.38;6.72;;;;;;;21.20;48.84;101611.63;5057487;28;20052;-70
2021/10/19 05:54:47;;;;;;;10.70;6.45;;;;;;;21.20;48.87;101608.97;5074670;28;20074;-70
2021/10/19 05:57:13;;;;;;;9.40;5.90;;;;;;;21.26;48.90;101605.66;5077075;28;20024;-70
2021/10/19 05:59:38;;;;;;;8.80;6.50;;;;;;;21.34;48.57;101602.97;5075792;28;20457;-70
2021/10/19 06:02:04;;;;;;;10.90;6.88;;;;;;;21.42;48.43;101597.66;5058381;28;20499;-71
2021/10/19 06:04:29;;;;;;;9.52;6.80;;;;;;;21.47;48.29;101599.78;5084885;28;20477;-70
2021/10/19 06:06:57;;;;;;;11.30;7.22;;;;;;;21.32;48.38;101582.94;5075916;28;20024;-70
2021/10/19 06:09:27;;;;;;;8.85;6.53;;;;;;;21.32;48.47;101586.41;5084707;28;20398;-70
2021/10/19 06:11:53;;;;;;;8.23;5.80;;;;;;;21.34;48.52;101586.25;5070376;28;20040;-70
2021/10/19 06:14:19;;;;;;;9.32;6.63;;;;;;;21.36;48.47;101598.34;5083888;28;20051;-70
2021/10/19 06:16:45;;;;;;;11.70;6.90;;;;;;;21.28;48.90;101598.38;5071071;28;20132;-70
2021/10/19 06:19:12;;;;;;;11.38;6.68;;;;;;;21.16;48.80;101589.09;5076231;28;20119;-70
2021/10/19 06:21:38;;;;;;;10.27;6.63;;;;;;;21.24;48.86;101598.84;5081691;28;20036;-70
2021/10/19 06:24:04;;;;;;;9.70;6.30;;;;;;;21.27;48.88;101611.78;5086032;28;20089;-70
2021/10/19 06:26:35;;;;;;;9.25;6.57;;;;;;;21.18;48.93;101600.34;5075451;28;20069;-70
2021/10/19 06:29:01;;;;;;;9.93;6.65;;;;;;;21.25;48.76;101604.00;5070102;28;20029;-70
2021/10/19 06:31:26;;;;;;;9.60;6.80;;;;;;;21.17;49.04;101603.97;5067178;28;20112;-70
2021/10/19 06:33:52;;;;;;;10.02;6.63;;;;;;;21.17;48.91;101603.16;5057166;28;20441;-69
2021/10/19 06:36:18;;;;;;;9.00;6.40;;;;;;;21.20;49.09;101611.63;5063177;28;20043;-69
2021/10/19 06:38:43;;;;;;;9.75;6.85;;;;;;;21.17;49.01;101613.75;5057676;28;20040;-69
2021/10/19 06:41:09;;;;;;;9.02;6.43;;;;;;;21.21;48.88;101625.69;5070711;28;20039;-69
2021/10/19 06:43:34;;;;;;;9.13;6.63;;;;;;;21.18;48.87;101631.28;5064076;28;20036;-69
2021/10/19 06:46:00;;;;;;;10.57;7.00;;;;;;;21.15;48.98;101615.75;5064624;28;20047;-69
2021/10/19 06:48:25;;;;;;;9.63;6.63;;;;;;;21.13;49.10;101618.56;5060925;28;20040;-69
2021/10/19 06:50:51;;;;;;;9.25;6.40;;;;;;;21.13;48.82;101611.44;5065932;28;20036;-69
2021/10/19 06:53:16;;;;;;;9.43;6.65;;;;;;;21.10;48.84;101600.38;5069493;28;20044;-69
2021/10/19 06:55:42;;;;;;;9.65;6.80;;;;;;;21.15;48.86;101615.75;5068323;28;20047;-69
2021/10/19 06:58:10;;;;;;;11.93;7.18;;;;;;;21.17;48.98;101616.41;5064032;28;20040;-69
2021/10/19 07:00:35;;;;;;;9.30;6.45;;;;;;;21.10;49.12;101613.63;5062135;28;20136;-69
2021/10/19 07:03:01;;;;;;;10.43;6.75;;;;;;;21.10;49.31;101611.78;5072333;28;20044;-72
2021/10/19 07:05:26;;;;;;;8.98;6.47;;;;;;;21.11;49.24;101597.56;5068126;28;20053;-72
2021/10/19 07:07:52;;;;;;;9.45;6.75;;;;;;;21.09;49.20;101596.91;5058823;28;20449;-72
2021/10/19 07:10:20;;;;;;;10.23;6.65;;;;;;;21.14;49.08;101601.69;5061893;28;20048;-72
2021/10/19 07:12:46;;;;;;;10.45;7.20;;;;;;;21.02;48.57;101558.88;5070035;28;20101;-72
2021/10/19 07:15:11;;;;;;;10.25;6.68;;;;;;;21.32;48.39;101596.19;5046522;28;20032;-72
2021/10/19 07:17:38;;;;;;;9.30;6.82;;;;;;;21.39;48.58;101599.84;5053783;28;20389;-72
2021/10/19 07:20:06;;;;;;;9.23;6.63;;;;;;;21.39;48.20;101591.88;5080310;28;20032;-72
2021/10/19 07:22:32;;;;;;;9.30;6.82;;;;;;;21.41;48.56;101600.47;5065129;28;20509;-72
2021/10/19 07:24:58;;;;;;;8.40;6.07;;;;;;;21.44;48.34;101594.84;5073635;28;20048;-71
2021/10/19 07:27:23;;;;;;;10.07;6.85;;;;;;;21.40;48.32;101604.94;5059140;28;20036;-72
2021/10/19 07:29:49;;;;;;;8.73;6.10;;;;;;;21.38;48.35;101590.22;5066970;28;20047;-71
2021/10/19 07:32:15;;;;;;;8.65;6.22;;;;;;;21.33;48.54;101592.53;5061452;28;20025;-72
2021/10/19 07:34:41;;;;;;;8.45;6.13;;;;;;;21.30;48.81;101583.13;5074501;28;20211;-72
2021/10/19 07:37:06;;;;;;;9.98;7.03;;;;;;;21.34;48.62;101591.53;5073149;28;20048;-72
2021/10/19 07:39:36;;;;;;;10.70;7.05;;;;;;;21.36;48.82;101577.16;5066026;28;20052;-71
2021/10/19 07:42:02;;;;;;;10.18;6.47;;;;;;;21.29;48.70;101562.09;5072261;28;20474;-71
2021/10/19 07:44:28;;;;;;;9.35;6.22;;;;;;;21.35;48.79;101575.47;5068666;28;20098;-72
2021/10/19 07:46:54;;;;;;;10.25;7.32;;;;;;;21.32;48.75;101573.19;5071995;28;20040;-71
2021/10/19 07:49:19;;;;;;;8.95;6.20;;;;;;;21.25;48.98;101580.16;5066678;28;20048;-72
2021/10/19 07:51:46;;;;;;;10.38;6.72;;;;;;;21.25;49.14;101582.00;5069458;28;20074;-71
2021/10/19 07:54:12;;;;;;;10.00;6.95;;;;;;;21.25;49.17;101593.41;5067505;28;20478;-71
2021/10/19 07:56:38;;;;;;;8.82;6.22;;;;;;;21.17;49.19;101592.56;5069269;28;20398;-71
2021/10/19 07:59:05;;;;;;;10.80;6.07;;;;;;;21.13;49.09;101590.25;5069572;28;20538;-71
2021/10/19 08:01:33;;;;;;;11.80;6.60;;;;;;;21.16;49.15;101581.16;5070935;28;20060;-72
2021/10/19 08:03:59;;;;;;;8.88;6.35;;;;;;;21.15;49.05;101582.13;5069782;28;20489;-71
2021/10/19 08:06:25;;;;;;;9.13;6.40;;;;;;;21.27;49.12;101582.66;5071109;28;20059;-72
2021/10/19 08:08:51;;;;;;;9.52;6.55;;;;;;;21.31;48.95;101579.47;5071181;28;20474;-71
2021/10/19 08:11:17;;;;;;;11.50;7.13;;;;;;;21.23;49.24;101563.59;5072380;28;20101;-70
2021/10/19 08:13:43;;;;;;;8.20;6.30;;;;;;;21.23;48.95;101555.66;5070463;28;20115;-70
2021/10/19 08:16:08;;;;;;;10.02;6.90;;;;;;;21.27;49.08;101564.09;5069828;28;20044;-71
2021/10/19 08:18:34;;;;;;;9.15;6.07;;;;;;;21.27;49.27;101564.94;5069616;28;20048;-71
2021/10/19 08:21:03;;;;;;;10.45;7.10;;;;;;;21.29;49.27;101570.06;5069276;28;20028;-69
2021/10/19 08:23:28;;;;;;;8.50;6.63;;;;;;;21.20;49.54;101569.22;5072880;28;20028;-70
2021/10/19 08:25:54;;;;;;;10.52;6.68;;;;;;;21.17;49.29;101574.03;5059255;28;20466;-69
2021/10/19 08:28:25;;;;;;;8.85;6.57;;;;;;;21.14;49.62;101567.25;5069084;28;20386;-70
2021/10/19 08:30:51;;;;;;;7.97;5.97;;;;;;;21.19;49.27;101580.00;5080206;28;20115;-70
2021/10/19 08:33:17;;;;;;;8.38;6.43;;;;;;;21.25;49.38;101569.56;5070685;28;20048;-70
2021/10/19 08:35:43;;;;;;;7.35;5.80;;;;;;;21.13;49.59;101573.53;5074535;28;20040;-70
2021/10/19 08:38:13;;;;;;;9.48;6.07;;;;;;;21.13;49.37;101555.00;5082445;28;20489;-70
2021/10/19 08:40:40;;;;;;;9.77;6.38;;;;;;;21.16;49.39;101567.91;5073659;28;20060;-70
2021/10/19 08:43:05;;;;;;;8.95;6.43;;;;;;;21.15;49.59;101558.31;5069814;28;20060;-70
2021/10/19 08:45:31;;;;;;;10.50;6.85;;;;;;;21.11;49.65;101560.47;5082728;28;20040;-70
2021/10/19 08:47:57;;;;;;;11.93;7.30;;;;;;;21.12;49.87;101561.31;5073531;28;20455;-70
2021/10/19 08:50:24;;;;;;;7.35;5.78;;;;;;;21.12;49.57;101559.47;5069669;28;20036;-69
2021/10/19 08:52:50;;;;;;;11.90;7.43;;;;;;;21.14;49.86;101548.72;5068889;28;20033;-70
2021/10/19 08:55:16;;;;;;;10.10;6.70;;;;;;;21.23;49.31;101547.69;5056842;28;20494;-70
2021/10/19 08:57:42;;;;;;;9.35;6.90;;;;;;;21.17;49.46;101544.88;5067363;28;20475;-70
2021/10/19 09:00:09;;;;;;;9.25;6.35;;;;;;;21.22;49.85;101534.63;5067637;28;20063;-70
2021/10/19 09:02:37;;;;;;;9.57;6.38;;;;;;;21.16;49.84;101543.25;5067559;28;20454;-70
2021/10/19 09:05:18;;;;;;;11.05;6.60;;;;;;;21.12;49.85;101546.22;5068489;28;20037;-69
2021/10/19 09:07:59;;;;;;;8.60;6.03;;;;;;;21.16;49.97;101543.25;5066273;28;20036;-69
2021/10/19 09:10:37;;;;;;;9.10;6.13;;;;;;;21.18;49.65;101541.25;5068135;28;20035;-70
2021/10/19 09:13:13;;;;;;;8.48;6.72;;;;;;;21.13;49.71;101537.28;5070373;28;20029;-70
2021/10/19 09:15:42;;;;;;;8.88;6.05;;;;;;;21.51;49.40;101544.59;5041846;28;20056;-70
2021/10/19 09:18:10;;;;;;;9.43;5.93;;;;;;;21.91;49.07;101546.22;5060724;28;20044;-70
2021/10/19 09:20:39;;;;;;;8.60;6.15;;;;;;;22.05;49.22;101544.66;5067976;28;20037;-71
2021/10/19 09:23:06;;;;;;;12.48;6.63;;;;;;;22.08;49.06;101542.44;5066992;28;20040;-72
2021/10/19 09:25:38;;;;;;;10.80;6.00;;;;;;;22.14;49.29;101536.47;5063294;28;20457;-68
2021/10/19 09:28:06;;;;;;;8.50;6.10;;;;;;;22.21;49.04;101548.00;5058605;28;20048;-68
2021/10/19 09:30:45;;;;;;;8.48;5.90;;;;;;;22.33;49.27;101537.78;5044595;28;20087;-69
2021/10/19 09:33:16;;;;;;;8.02;5.90;;;;;;;22.32;48.91;101549.41;5057138;28;20036;-71
2021/10/19 09:35:43;;;;;;;12.20;6.00;;;;;;;22.32;49.27;101546.75;5065015;28;20111;-69
2021/10/19 09:38:10;;;;;;;9.85;6.80;;;;;;;22.40;48.86;101536.06;5043851;28;20154;-69
2021/10/19 09:40:37;;;;;;;9.48;6.35;;;;;;;22.47;48.76;101536.19;5049535;28;20033;-69
2021/10/19 09:43:05;;;;;;;8.85;5.55;;;;;;;22.52;48.66;101525.84;5049142;28;20039;-68
2021/10/19 09:45:33;;;;;;;9.50;6.18;;;;;;;22.69;48.26;101519.38;5062136;28;20564;-69
2021/10/19 09:47:58;;;;;;;9.50;5.93;;;;;;;22.96;47.75;101528.56;5038197;28;20036;-70
2021/10/19 09:50:25;;;;;;;9.02;6.20;;;;;;;23.10;47.26;101525.06;5067456;28;20049;-69
2021/10/19 09:52:52;;;;;;;7.18;5.88;;;;;;;23.29;46.82;101522.84;5058083;28;20488;-69
2021/10/19 09:55:18;;;;;;;8.10;5.53;;;;;;;23.20;46.92;101517.66;5038326;28;20348;-70
2021/10/19 09:57:44;;;;;;;7.32;5.28;;;;;;;23.13;47.14;101529.19;5064233;28;20067;-70
2021/10/19 10:00:10;;;;;;;8.93;5.35;;;;;;;23.17;47.06;101527.84;5048189;28;20466;-71
2021/10/19 10:02:39;;;;;;;9.35;5.80;;;;;;;23.31;46.78;101511.03;5061132;28;20055;-71
2021/10/19 10:05:05;;;;;;;9.57;5.82;;;;;;;23.48;46.40;101519.59;5013697;28;20033;-70
2021/10/19 10:07:37;;;;;;;6.70;5.43;;;;;;;23.48;46.56;101517.78;5065234;28;20123;-70
2021/10/19 10:10:04;;;;;;;7.32;5.20;;;;;;;23.44;46.36;101515.69;5042485;28;20033;-71
2021/10/19 10:12:34;;;;;;;8.80;5.68;;;;;;;23.49;46.51;101531.88;5066974;28;20706;-73
2021/10/19 10:15:00;;;;;;;8.48;5.70;;;;;;;23.45;46.87;101518.16;5038008;28;20397;-68
2021/10/19 10:17:26;;;;;;;9.18;5.28;;;;;;;23.38;46.74;101506.63;5063018;28;20053;-72
2021/10/19 10:19:52;;;;;;;7.97;5.50;;;;;;;23.41;46.95;101506.25;5031022;28;21824;-72
2021/10/19 10:22:28;;;;;;;7.70;5.50;;;;;;;23.51;46.83;101505.94;5061386;28;20105;-72
2021/10/19 10:25:06;;;;;;;7.78;5.38;;;;;;;23.57;46.70;101512.38;5055800;28;20386;-72
2021/10/19 10:27:32;;;;;;;8.18;5.43;;;;;;;23.44;46.48;101473.16;5065288;28;20055;-71
2021/10/19 10:29:57;;;;;;;7.47;5.50;;;;;;;23.21;47.42;101500.69;5051032;28;20040;-72
2021/10/19 10:32:28;;;;;;;6.50;5.03;;;;;;;23.36;47.49;101503.34;5058148;28;20045;-71
2021/10/19 10:35:09;;;;;;;6.35;4.95;;;;;;;22.93;48.20;101486.44;5054478;28;20036;-70
2021/10/19 10:37:52;;;;;;;7.40;5.15;;;;;;;22.84;48.97;101506.97;5038107;28;20032;-73
2021/10/19 10:40:31;;;;;;;7.72;5.03;;;;;;;22.86;48.54;101499.63;5064465;28;20067;-72
2021/10/19 10:42:58;;;;;;;;;;;;;;;22.85;48.74;101502.47;5039314;28;20043;-72
2021/10/19 10:45:33;;;;;;;8.10;4.38;;;;;;;;;;5065880;28;20347;-72
2021/10/19 10:48:04;;;;;;;7.00;5.07;;;;;;;22.80;48.56;101464.97;5040276;28;20038;-73
2021/10/19 10:50:32;;;;;;;9.80;4.95;;;;;;;22.77;48.45;101473.31;5066374;28;20036;-73
2021/10/19 10:53:09;;;;;;;6.55;5.07;;;;;;;22.83;48.33;101469.97;5014512;28;20047;-73
2021/10/19 10:55:45;;;;;;;8.45;5.28;;;;;;;22.83;48.17;101469.97;5064746;28;20048;-73
2021/10/19 10:58:29;;;;;;;9.02;5.20;;;;;;;22.74;48.44;101455.91;5024001;28;20865;-72
2021/10/19 11:00:55;;;;;;;8.50;5.40;;;;;;;22.77;48.62;101457.38;5065210;28;20040;-72
2021/10/19 11:03:21;;;;;;;5.80;4.38;;;;;;;22.77;48.59;101454.72;5039050;28;20052;-71
2021/10/19 11:05:55;;;;;;;6.15;4.40;;;;;;;22.77;48.62;101463.50;5065765;28;20111;-72
2021/10/19 11:08:29;;;;;;;6.25;4.80;;;;;;;22.66;48.52;101448.06;5038645;28;24598;-72
2021/10/19 11:11:13;;;;;;;7.50;4.70;;;;;;;22.72;48.34;101462.44;5055143;28;20044;-73
2021/10/19 11:14:01;;;;;;;5.63;4.18;;;;;;;22.74;48.62;101447.97;5059584;28;20043;-73
2021/10/19 11:16:30;;;;;;;8.13;4.65;;;;;;;22.70;48.48;101443.22;5036144;28;20045;-73
2021/10/19 11:18:56;;;;;;;5.50;4.30;;;;;;;22.70;48.65;101445.88;5048445;28;20115;-73
2021/10/19 11:21:22;;;;;;;7.65;5.07;;;;;;;22.69;48.55;101445.03;5037618;28;20036;-73